Time;durP1;ratioP1;P1;durP2;ratioP2;P2;SDS_P1;SDS_P2;PMS_P1;PMS_P2;Temp;Humidity;BMP_temperature;BMP_pressure;BME280_temperature;BME280_humidity;BME280_pressure;Samples;Min_cycle;Max_cycle;Signal;HPM_P1;HPM_P2
2022/07/01 00:03:11;;;;;;;15.55;9.45;;;;;;;24.34;85.65;99724.34;2815389;83;22278;-88
2022/07/01 00:07:13;;;;;;;11.38;9.85;;;;;;;24.30;85.57;99718.52;2810742;84;21031;-88
2022/07/01 00:11:15;;;;;;;10.05;9.05;;;;;;;24.28;85.83;99715.76;2813288;83;21094;-88
2022/07/01 00:15:16;;;;;;;9.90;8.65;;;;;;;24.16;86.14;99717.05;2815628;83;21035;-88
2022/07/01 00:19:17;;;;;;;13.38;9.90;;;;;;;24.10;86.43;99725.61;2810715;83;21074;-88
2022/07/01 00:23:19;;;;;;;13.00;9.88;;;;;;;24.03;87.11;99731.12;2806942;83;21071;-88
2022/07/01 00:27:21;;;;;;;11.35;10.15;;;;;;;23.89;87.46;99726.36;2815206;83;21523;-88
2022/07/01 00:31:23;;;;;;;15.30;11.35;;;;;;;23.78;88.01;99730.67;2808401;84;21054;-88
2022/07/01 00:35:24;;;;;;;13.45;9.98;;;;;;;23.73;88.25;99725.06;2812887;83;21090;-88
2022/07/01 00:39:26;;;;;;;10.63;9.63;;;;;;;23.70;88.36;99721.45;2813610;83;21039;-88
2022/07/01 00:43:27;;;;;;;11.80;9.63;;;;;;;23.71;88.74;99731.80;2813958;83;21083;-88
2022/07/01 00:47:28;;;;;;;13.62;10.68;;;;;;;23.66;89.09;99733.83;2815059;83;21019;-88
2022/07/01 00:51:30;;;;;;;15.65;11.57;;;;;;;23.63;89.58;99736.45;2814987;83;20952;-88
2022/07/01 00:55:31;;;;;;;14.03;10.88;;;;;;;23.64;89.62;99731.87;2815982;83;21542;-88
2022/07/01 00:59:34;;;;;;;20.40;10.98;;;;;;;23.58;89.26;99739.53;2791587;83;21035;-89
2022/07/01 01:03:36;;;;;;;15.93;10.88;;;;;;;23.56;89.46;99740.29;2814739;83;21071;-88
2022/07/01 01:07:37;;;;;;;14.98;11.00;;;;;;;23.57;89.14;99735.16;2815893;83;21036;-88
2022/07/01 01:11:39;;;;;;;12.98;10.38;;;;;;;23.63;88.94;99730.21;2814822;83;21051;-89
2022/07/01 01:15:40;;;;;;;12.35;10.90;;;;;;;23.59;88.87;99720.32;2766002;83;21487;-87
2022/07/01 01:19:43;;;;;;;11.97;10.75;;;;;;;23.63;88.52;99708.49;2815352;83;21035;-88
2022/07/01 01:23:44;;;;;;;13.70;9.70;;;;;;;23.63;88.77;99709.85;2815213;83;21032;-88
2022/07/01 01:27:47;;;;;;;16.30;9.95;;;;;;;23.62;88.08;99709.00;2811281;83;21007;-87
2022/07/01 01:31:48;;;;;;;14.98;11.63;;;;;;;23.56;87.57;99718.58;2813469;83;21055;-87
2022/07/01 01:35:49;;;;;;;13.53;9.60;;;;;;;23.50;87.46;99717.08;2814002;83;21050;-88
2022/07/01 01:39:50;;;;;;;18.62;11.57;;;;;;;23.48;87.53;99712.41;2813874;83;21602;-88
2022/07/01 01:43:51;;;;;;;15.68;12.47;;;;;;;23.43;88.12;99714.13;2814089;84;21062;-88
2022/07/01 01:47:52;;;;;;;18.85;12.25;;;;;;;23.41;89.20;99713.02;2815060;83;21032;-87
2022/07/01 01:51:56;;;;;;;18.10;15.23;;;;;;;23.38;89.70;99714.79;2813415;83;21043;-88
2022/07/01 01:55:58;;;;;;;19.00;11.08;;;;;;;23.36;89.91;99719.11;2799855;83;21530;-88
2022/07/01 01:59:59;;;;;;;15.30;12.05;;;;;;;23.37;89.73;99711.78;2754323;84;21055;-88
2022/07/01 02:04:00;;;;;;;18.02;11.95;;;;;;;23.32;90.02;99714.34;2811201;83;21039;-88
2022/07/01 02:08:03;;;;;;;13.62;11.53;;;;;;;23.09;89.51;99714.43;2813457;84;21035;-88
2022/07/01 02:12:04;;;;;;;15.40;11.48;;;;;;;22.70;89.79;99717.27;2814783;83;21039;-88
2022/07/01 02:16:06;;;;;;;13.78;11.38;;;;;;;22.52;90.52;99731.55;2808902;83;21090;-88
2022/07/01 02:20:09;;;;;;;13.00;10.85;;;;;;;22.39;91.27;99729.19;2814988;84;20980;-88
2022/07/01 02:24:10;;;;;;;30.20;13.30;;;;;;;22.33;94.00;99735.48;2815156;83;21051;-89
2022/07/01 02:28:12;;;;;;;21.95;12.60;;;;;;;22.28;95.53;99736.66;2812549;83;21094;-88
2022/07/01 02:32:13;;;;;;;18.50;11.97;;;;;;;22.27;96.03;99736.36;2815132;83;21055;-89
2022/07/01 02:36:14;;;;;;;17.42;10.78;;;;;;;22.31;95.53;99736.22;2798445;84;21574;-89
2022/07/01 02:40:16;;;;;;;21.17;11.53;;;;;;;22.29;95.46;99727.48;2806574;83;21082;-88
2022/07/01 02:44:17;;;;;;;24.07;13.03;;;;;;;22.28;95.76;99731.24;2807435;83;21059;-88
2022/07/01 02:48:18;;;;;;;15.35;12.40;;;;;;;22.18;96.12;99736.28;2784154;84;21067;-88
2022/07/01 02:52:20;;;;;;;15.32;13.68;;;;;;;22.23;96.35;99723.77;2803463;83;21015;-88
2022/07/01 02:56:21;;;;;;;19.20;12.53;;;;;;;22.29;95.84;99720.72;2810414;83;21012;-88
2022/07/01 03:00:22;;;;;;;20.85;11.97;;;;;;;22.35;94.49;99725.25;2799530;84;21030;-88
2022/07/01 03:04:23;;;;;;;32.00;15.03;;;;;;;22.35;94.00;99725.25;2802328;83;21066;-88
2022/07/01 03:08:25;;;;;;;28.50;14.75;;;;;;;22.42;94.53;99728.47;2791945;83;21890;-88
2022/07/01 03:12:27;;;;;;;20.77;14.35;;;;;;;22.49;94.64;99734.70;2812919;83;21122;-89
2022/07/01 03:16:28;;;;;;;21.30;14.13;;;;;;;22.51;95.09;99732.59;2823618;83;21051;-89
2022/07/01 03:20:30;;;;;;;24.72;14.13;;;;;;;22.63;95.42;99740.34;2734257;83;22195;-89
2022/07/01 03:24:31;;;;;;;33.02;12.58;;;;;;;22.78;95.75;99745.95;2814743;83;21019;-90
2022/07/01 03:28:34;;;;;;;22.93;14.03;;;;;;;22.79;94.78;99740.84;2812036;83;21512;-88
2022/07/01 03:32:35;;;;;;;34.38;15.20;;;;;;;22.75;96.03;99745.89;2810693;83;21492;-88
2022/07/01 03:36:36;;;;;;;26.60;16.23;;;;;;;22.75;96.53;99742.34;2747921;84;21011;-88
2022/07/01 03:40:38;;;;;;;26.30;15.25;;;;;;;22.84;97.11;99743.74;2776982;84;21087;-89
2022/07/01 03:44:40;;;;;;;41.02;17.90;;;;;;;22.88;97.17;99736.82;2813743;83;21066;-88
2022/07/01 03:48:42;;;;;;;29.65;15.10;;;;;;;22.99;97.38;99747.47;2801740;83;21043;-88
2022/07/01 03:52:43;;;;;;;20.32;15.63;;;;;;;23.08;97.40;99742.61;2814863;83;21043;-88
2022/07/01 03:56:45;;;;;;;44.40;18.87;;;;;;;23.18;98.02;99744.27;2810630;83;21062;-89
2022/07/01 04:00:46;;;;;;;30.52;16.70;;;;;;;23.40;97.43;99746.63;2802806;83;21498;-89
2022/07/01 04:04:47;;;;;;;28.55;17.65;;;;;;;23.51;96.68;99741.80;2794241;83;21329;-89
2022/07/01 04:08:49;;;;;;;27.75;17.42;;;;;;;23.61;96.24;99737.21;2808849;83;21035;-89
2022/07/01 04:12:50;;;;;;;29.70;18.02;;;;;;;23.71;96.42;99752.16;2798697;83;21559;-89
2022/07/01 04:16:53;;;;;;;33.63;19.32;;;;;;;23.75;96.46;99750.09;2814284;83;21023;-89
2022/07/01 04:25:14;;;;;;;24.47;15.23;;;;;;;23.98;96.38;99739.62;2808082;83;21515;-89
2022/07/01 04:29:15;;;;;;;27.20;17.60;;;;;;;24.34;97.44;99737.92;2808858;83;21023;-88
2022/07/01 04:33:16;;;;;;;24.40;16.48;;;;;;;25.10;96.91;99749.64;2803244;83;20983;-89
2022/07/01 04:37:19;;;;;;;25.77;13.22;;;;;;;25.79;93.20;99750.42;2820721;83;21066;-88
2022/07/01 04:45:41;;;;;;;17.52;13.60;;;;;;;26.80;86.95;99748.78;2815563;83;21083;-89
2022/07/01 04:49:42;;;;;;;21.20;16.05;;;;;;;27.20;83.90;99741.52;2820207;84;21284;-88
2022/07/01 04:53:43;;;;;;;21.25;14.70;;;;;;;27.27;82.53;99733.16;2809505;83;21070;-88
2022/07/01 04:57:44;;;;;;;22.27;15.88;;;;;;;27.47;83.06;99729.91;2820978;83;21031;-88
2022/07/01 05:01:50;;;;;;;19.07;13.50;;;;;;;27.77;80.56;99733.61;2820504;83;21020;-89
2022/07/01 05:05:51;;;;;;;20.02;14.38;;;;;;;28.44;80.70;99719.88;2810003;83;20979;-87
2022/07/01 05:09:52;;;;;;;19.67;13.98;;;;;;;29.10;76.82;99711.14;2821280;83;21000;-89
2022/07/01 05:13:53;;;;;;;20.00;14.05;;;;;;;29.66;74.96;99709.80;2820343;83;21098;-89
2022/07/01 05:22:14;;;;;;;21.12;13.53;;;;;;;30.97;69.96;99715.84;2801128;84;21007;-89
2022/07/01 05:26:17;;;;;;;15.53;13.93;;;;;;;31.44;68.12;99713.85;2821442;83;21039;-88
2022/07/01 05:30:18;;;;;;;18.67;14.55;;;;;;;31.73;66.11;99716.77;2819527;84;21020;-89
2022/07/01 05:34:20;;;;;;;15.32;12.93;;;;;;;31.83;65.40;99715.92;2820409;84;21264;-88
2022/07/01 05:38:21;;;;;;;20.68;14.28;;;;;;;31.96;64.97;99713.11;2821444;83;21042;-87
2022/07/01 05:42:23;;;;;;;19.37;16.00;;;;;;;32.15;66.26;99715.20;2780661;84;21030;-89
2022/07/01 05:46:24;;;;;;;25.20;17.60;;;;;;;32.22;63.88;99715.70;2822213;83;21027;-88
2022/07/01 05:50:25;;;;;;;17.67;15.20;;;;;;;32.42;64.97;99711.19;2767467;84;21046;-88
2022/07/01 05:54:27;;;;;;;19.12;16.65;;;;;;;33.02;63.10;99707.44;2823912;83;21019;-88
2022/07/01 05:58:28;;;;;;;21.05;16.00;;;;;;;33.32;60.99;99704.08;2822285;84;21027;-88
2022/07/01 06:02:29;;;;;;;20.35;17.42;;;;;;;33.40;61.25;99698.48;2820770;83;21078;-88
2022/07/01 06:06:30;;;;;;;19.50;16.90;;;;;;;33.51;60.17;99701.96;2822544;83;21054;-89
2022/07/01 06:10:32;;;;;;;21.42;17.75;;;;;;;33.78;60.84;99700.52;2820515;83;21011;-89
2022/07/01 06:14:34;;;;;;;19.57;16.20;;;;;;;33.86;59.81;99699.30;2821004;83;21143;-89
2022/07/01 06:18:35;;;;;;;19.15;16.37;;;;;;;33.98;60.30;99690.61;2820954;84;21019;-88
2022/07/01 06:22:36;;;;;;;19.15;16.90;;;;;;;34.05;60.19;99690.23;2818802;84;21035;-89
2022/07/01 06:26:37;;;;;;;19.92;15.95;;;;;;;33.25;60.55;99699.48;2822055;83;21291;-89
2022/07/01 06:30:43;;;;;;;18.15;16.10;;;;;;;32.85;62.80;99701.77;2816848;83;21102;-89
2022/07/01 06:34:42;;;;;;;22.10;17.20;;;;;;;32.50;64.10;99700.12;2827943;82;21023;-88
2022/07/01 06:38:43;;;;;;;18.40;15.93;;;;;;;32.34;63.87;99700.27;2826621;82;21034;-88
2022/07/01 06:42:44;;;;;;;20.35;15.83;;;;;;;31.86;64.24;99706.30;2805959;84;21042;-89
2022/07/01 06:46:45;;;;;;;22.27;18.80;;;;;;;31.44;66.15;99710.54;2820127;83;21039;-89
2022/07/01 06:50:48;;;;;;;24.82;18.32;;;;;;;31.43;67.74;99706.71;2817986;84;28247;-88
2022/07/01 06:54:49;;;;;;;18.02;15.50;;;;;;;31.52;67.09;99705.02;2820197;84;20984;-88
2022/07/01 06:58:50;;;;;;;19.37;16.60;;;;;;;31.70;66.09;99689.84;2824375;84;21551;-89
2022/07/01 07:02:51;;;;;;;23.12;16.07;;;;;;;32.10;65.19;99675.36;2820665;83;21003;-89
2022/07/01 07:06:53;;;;;;;21.68;17.15;;;;;;;32.50;64.44;99673.44;2822243;83;21318;-89
2022/07/01 07:10:54;;;;;;;17.98;14.00;;;;;;;32.90;63.01;99669.24;2822189;83;21326;-88
2022/07/01 07:14:55;;;;;;;15.60;14.00;;;;;;;33.19;61.85;99670.59;2779712;84;20991;-89
2022/07/01 07:18:56;;;;;;;15.83;13.68;;;;;;;33.47;62.12;99676.91;2822117;83;21047;-89
2022/07/01 07:22:58;;;;;;;28.23;14.75;;;;;;;33.73;62.26;99673.27;2822591;83;21040;-89
2022/07/01 07:26:59;;;;;;;16.45;14.68;;;;;;;33.74;60.85;99676.29;2821819;83;21031;-89
2022/07/01 07:31:00;;;;;;;18.62;14.80;;;;;;;33.80;61.97;99681.19;2806560;84;21015;-89
2022/07/01 07:35:01;;;;;;;16.15;14.10;;;;;;;33.87;60.31;99683.00;2810443;84;21063;-88
2022/07/01 07:39:04;;;;;;;16.12;13.32;;;;;;;34.21;61.50;99683.12;2753646;83;21121;-88
2022/07/01 07:43:07;;;;;;;16.40;14.65;;;;;;;34.21;60.54;99684.50;2820395;83;21063;-89
2022/07/01 07:47:08;;;;;;;16.17;13.68;;;;;;;34.29;58.27;99687.95;2804952;84;21078;-88
2022/07/01 07:51:14;;;;;;;16.30;14.43;;;;;;;34.52;57.43;99689.57;2810227;83;21519;-88
2022/07/01 07:55:14;;;;;;;14.58;13.10;;;;;;;34.39;58.58;99709.88;2801229;83;21110;-88
2022/07/01 07:59:15;;;;;;;17.77;14.60;;;;;;;34.59;59.01;99693.59;2816020;83;21590;-89
2022/07/01 08:03:17;;;;;;;23.98;15.40;;;;;;;34.84;60.46;99703.09;2822103;83;21043;-88
2022/07/01 08:07:18;;;;;;;16.32;13.00;;;;;;;34.64;59.13;99702.90;2820372;83;21031;-88
2022/07/01 08:11:19;;;;;;;14.55;13.15;;;;;;;34.62;59.04;99701.80;2821354;82;21487;-88
2022/07/01 08:15:20;;;;;;;14.98;13.48;;;;;;;34.54;58.66;99710.22;2816807;83;20972;-89
2022/07/01 08:19:22;;;;;;;17.48;13.40;;;;;;;34.33;58.88;99704.98;2817283;84;21027;-89
2022/07/01 08:23:23;;;;;;;19.30;13.50;;;;;;;34.10;60.21;99706.73;2816565;83;21008;-87
2022/07/01 08:27:24;;;;;;;25.25;14.10;;;;;;;34.03;59.61;99701.59;2815602;83;21008;-88
2022/07/01 08:31:25;;;;;;;19.67;15.28;;;;;;;34.02;59.38;99698.57;2798040;83;21027;-88
2022/07/01 08:35:27;;;;;;;18.75;13.15;;;;;;;34.09;62.00;99693.23;2815757;83;21051;-89
2022/07/01 08:39:29;;;;;;;21.12;14.95;;;;;;;34.26;60.83;99694.91;2813373;84;20980;-88
2022/07/01 08:43:30;;;;;;;15.50;13.98;;;;;;;34.40;58.49;99692.77;2801375;84;20976;-88
2022/07/01 08:47:32;;;;;;;15.95;14.33;;;;;;;34.52;58.90;99682.09;2815640;83;21046;-88
2022/07/01 08:51:33;;;;;;;16.15;14.65;;;;;;;34.70;58.16;99692.02;2817302;84;21062;-88
2022/07/01 08:56:40;;;;;;;12.85;11.48;;;;;;;34.89;56.49;99694.16;2817119;83;20996;-88
2022/07/01 08:59:38;;;;;;;14.53;12.07;;;;;;;35.15;56.61;99685.41;2814736;83;21046;-88
2022/07/01 09:03:39;;;;;;;16.62;13.15;;;;;;;35.23;54.79;99673.41;2817917;83;21945;-88
2022/07/01 09:07:40;;;;;;;15.72;13.30;;;;;;;35.34;54.59;99665.72;2812519;83;21066;-89
2022/07/01 09:11:53;;;;;;;20.40;13.38;;;;;;;35.53;55.31;99663.69;2816023;83;21031;-88
2022/07/01 09:15:56;;;;;;;16.25;12.90;;;;;;;35.60;55.17;99682.05;2818257;83;20990;-88
2022/07/01 09:19:58;;;;;;;15.68;12.93;;;;;;;35.33;54.48;99680.09;2818381;83;21019;-88
2022/07/01 09:24:04;;;;;;;15.38;12.37;;;;;;;34.95;55.28;99683.00;2807233;83;21011;-89
2022/07/01 09:28:24;;;;;;;18.15;13.53;;;;;;;34.75;55.81;99675.34;2751305;84;21058;-88
2022/07/01 09:32:25;;;;;;;17.50;11.88;;;;;;;34.57;56.52;99665.44;2813256;83;21059;-88
2022/07/01 09:36:26;;;;;;;17.62;13.48;;;;;;;34.63;57.02;99665.36;2817154;83;21059;-89
2022/07/01 09:40:55;;;;;;;15.50;12.43;;;;;;;34.73;55.91;99658.27;2799980;84;21027;-87
2022/07/01 09:45:06;;;;;;;17.67;12.85;;;;;;;34.83;55.41;99661.41;2771343;84;21043;-89
2022/07/01 09:49:06;;;;;;;11.80;10.68;;;;;;;34.81;54.57;99661.72;2815497;83;20987;-89
2022/07/01 09:53:08;;;;;;;13.45;12.05;;;;;;;34.76;53.17;99659.03;2810699;83;21047;-88
2022/07/01 09:57:09;;;;;;;13.10;11.65;;;;;;;34.92;53.41;99658.76;2816508;83;21011;-89
2022/07/01 10:01:13;;;;;;;13.05;11.50;;;;;;;35.06;53.23;99659.63;2817979;84;21035;-88
2022/07/01 10:05:23;;;;;;;12.75;10.53;;;;;;;35.25;53.01;99654.56;2817581;83;21709;-88
2022/07/01 10:10:04;;;;;;;11.83;10.72;;;;;;;35.51;52.70;99640.20;2811885;83;21043;-87
2022/07/01 10:14:09;;;;;;;14.33;12.25;;;;;;;35.48;53.08;99643.59;2819834;83;21511;-88
2022/07/01 10:18:28;;;;;;;13.68;11.50;;;;;;;35.44;54.42;99641.45;2817928;83;20956;-88
2022/07/01 10:22:30;;;;;;;20.20;11.78;;;;;;;35.54;52.88;99622.47;2819536;84;21019;-88
2022/07/01 10:26:31;;;;;;;14.07;11.63;;;;;;;35.45;54.25;99633.41;2818323;84;21117;-88
2022/07/01 10:30:33;;;;;;;20.70;12.93;;;;;;;35.62;54.09;99616.77;2822606;83;21638;-89
2022/07/01 10:34:40;;;;;;;12.75;11.08;;;;;;;35.71;55.47;99598.29;2821783;83;21034;-87
2022/07/01 10:39:16;;;;;;;12.93;11.73;;;;;;;35.67;54.15;99623.56;2819898;83;21076;-88
2022/07/01 10:43:32;;;;;;;20.92;12.73;;;;;;;35.41;53.27;99643.45;2801388;84;20999;-88
2022/07/01 10:47:34;;;;;;;23.18;11.88;;;;;;;34.79;54.56;99646.02;2817479;84;21043;-89
2022/07/01 10:51:54;;;;;;;13.38;10.93;;;;;;;34.21;55.83;99657.73;2819744;84;21059;-88
2022/07/01 10:55:56;;;;;;;16.45;10.72;;;;;;;33.66;57.88;99660.42;2821692;83;21046;-88
2022/07/01 11:00:06;;;;;;;10.63;9.60;;;;;;;33.07;57.89;99655.58;2819455;83;21019;-88
2022/07/01 11:04:07;;;;;;;32.08;13.18;;;;;;;32.49;59.25;99682.81;2822127;84;21575;-89
2022/07/01 11:08:11;;;;;;;11.12;10.03;;;;;;;32.00;60.57;99630.88;2777495;84;21047;-88
2022/07/01 11:12:16;;;;;;;13.83;9.60;;;;;;;31.62;61.29;99646.44;2819621;83;21576;-88
2022/07/01 11:16:18;;;;;;;18.30;7.40;;;;;;;31.23;62.34;99710.33;2818297;83;21062;-89
2022/07/01 11:20:22;;;;;;;11.83;8.53;;;;;;;30.09;65.25;99719.87;2815558;83;21051;-89
2022/07/01 11:24:25;;;;;;;14.70;8.60;;;;;;;28.89;73.34;99713.73;2814083;83;21028;-88
2022/07/01 11:28:26;;;;;;;12.68;8.90;;;;;;;27.99;78.69;99727.30;2816618;83;21062;-89
2022/07/01 11:32:30;;;;;;;15.05;9.00;;;;;;;27.26;83.26;99747.88;2806919;83;21043;-88
2022/07/01 11:40:53;;;;;;;13.50;7.53;;;;;;;25.97;95.43;99754.05;2817094;83;21004;-87
2022/07/01 11:44:54;;;;;;;10.68;8.15;;;;;;;25.46;92.49;99751.84;2814425;83;21066;-87
2022/07/01 11:48:55;;;;;;;15.48;8.38;;;;;;;25.13;93.66;99749.72;2813901;83;21068;-87
2022/07/01 11:52:57;;;;;;;8.65;7.78;;;;;;;24.90;95.92;99783.45;2818241;83;21075;-88
2022/07/01 11:57:15;;;;;;;7.12;6.40;;;;;;;24.72;95.64;99791.12;2808758;83;21011;-87
2022/07/01 12:01:29;;;;;;;7.75;6.30;;;;;;;24.44;95.47;99756.39;2813595;84;21027;-88
2022/07/01 12:05:31;;;;;;;9.80;6.67;;;;;;;24.31;94.71;99747.36;2814180;83;21550;-88
2022/07/01 12:09:33;;;;;;;15.10;8.43;;;;;;;24.41;95.59;99769.09;2816750;83;20972;-88
2022/07/01 12:13:37;;;;;;;9.70;8.70;;;;;;;24.56;99.43;99772.20;2815884;83;21032;-87
2022/07/01 12:17:38;;;;;;;11.20;8.20;;;;;;;24.72;100.00;99790.28;2814015;83;21038;-88
2022/07/01 12:21:53;;;;;;;13.55;9.48;;;;;;;24.95;100.00;99796.35;2815914;83;21039;-88
2022/07/01 12:25:57;;;;;;;12.95;9.18;;;;;;;25.26;100.00;99782.67;2795573;84;21074;-88
2022/07/01 12:29:59;;;;;;;15.30;12.20;;;;;;;25.67;100.00;99779.55;2812688;83;21030;-88
2022/07/01 12:34:00;;;;;;;19.80;12.58;;;;;;;26.07;100.00;99784.77;2808709;83;21019;-88
2022/07/01 12:38:02;;;;;;;11.97;9.80;;;;;;;26.55;100.00;99785.97;2798879;83;20995;-88
2022/07/01 12:42:04;;;;;;;11.88;10.03;;;;;;;27.10;95.78;99796.77;2813943;84;21523;-88
2022/07/01 12:46:05;;;;;;;14.33;9.75;;;;;;;27.71;92.38;99805.66;2815070;83;20983;-89
2022/07/01 12:50:22;;;;;;;13.05;11.75;;;;;;;28.25;90.10;99817.83;2814085;83;21047;-88
2022/07/01 12:54:36;;;;;;;21.57;15.93;;;;;;;28.55;88.15;99814.33;2785688;84;21007;-88
2022/07/01 12:58:37;;;;;;;20.48;17.25;;;;;;;28.78;87.67;99802.27;2794871;83;21114;-88
2022/07/01 13:02:39;;;;;;;24.77;18.07;;;;;;;28.88;88.09;99787.87;2795163;83;21060;-87
2022/07/01 13:06:40;;;;;;;19.90;17.82;;;;;;;29.19;83.53;99731.45;2812122;83;21062;-87
2022/07/01 13:10:41;;;;;;;17.45;15.80;;;;;;;29.19;83.53;99731.45;2745746;84;21278;-88
2022/07/01 13:14:43;;;;;;;17.85;14.65;;;;;;;29.66;85.85;99768.72;2781359;83;21066;-87
2022/07/01 13:18:45;;;;;;;18.98;14.90;;;;;;;29.89;81.45;99789.95;2817284;83;21098;-86
2022/07/01 13:22:46;;;;;;;27.90;18.23;;;;;;;29.91;78.44;99798.73;2788872;83;21023;-88
2022/07/01 13:26:48;;;;;;;22.95;17.15;;;;;;;29.96;77.91;99843.98;2827607;82;21023;-87
2022/07/01 13:30:49;;;;;;;28.98;20.75;;;;;;;29.55;75.20;99876.62;2792912;83;21047;-88
2022/07/01 13:34:51;;;;;;;25.27;19.73;;;;;;;29.04;76.54;99881.90;2816956;83;21079;-88
2022/07/01 13:38:52;;;;;;;18.50;14.73;;;;;;;28.63;79.28;99887.20;2811606;83;21067;-86
2022/07/01 13:42:53;;;;;;;19.40;16.35;;;;;;;28.26;78.43;99870.63;2800478;83;21023;-87
2022/07/01 13:46:54;;;;;;;21.00;15.00;;;;;;;28.02;77.41;99870.84;2786648;83;21015;-88
2022/07/01 13:50:56;;;;;;;16.82;12.88;;;;;;;27.69;77.43;99873.36;2796395;83;21026;-88
2022/07/01 13:54:58;;;;;;;18.42;14.07;;;;;;;27.05;79.04;99888.13;2805682;83;21071;-86
2022/07/01 13:58:59;;;;;;;17.62;15.43;;;;;;;26.74;79.42;99881.52;2814314;83;20992;-89
2022/07/01 14:03:01;;;;;;;19.20;15.90;;;;;;;26.40;80.45;99902.39;2815085;83;21059;-89
2022/07/01 14:07:02;;;;;;;19.73;17.40;;;;;;;26.19;81.41;99940.92;2807829;83;21077;-87
2022/07/01 14:11:04;;;;;;;22.82;16.60;;;;;;;26.03;82.74;99957.44;2800972;84;21067;-84
2022/07/01 14:15:07;;;;;;;21.62;17.90;;;;;;;25.85;82.32;100020.20;2808691;83;21102;-84
2022/07/01 14:19:08;;;;;;;25.45;19.17;;;;;;;25.72;82.67;100004.91;2805719;84;21141;-84
2022/07/01 14:23:09;;;;;;;24.18;18.90;;;;;;;25.33;85.29;99924.91;2807041;84;20988;-85
2022/07/01 14:27:11;;;;;;;24.37;18.85;;;;;;;25.10;86.51;99899.30;2810750;84;21015;-84
2022/07/01 14:31:12;;;;;;;28.87;22.00;;;;;;;25.02;88.10;100004.38;2810605;84;21019;-88
2022/07/01 14:35:13;;;;;;;24.15;20.88;;;;;;;24.88;90.07;99971.89;2808962;83;21004;-85
2022/07/01 14:39:15;;;;;;;23.70;19.85;;;;;;;24.45;94.56;100004.86;2812830;83;21015;-85
2022/07/01 14:43:16;;;;;;;22.80;20.12;;;;;;;24.23;94.42;100039.80;2810608;83;21016;-85
2022/07/01 14:47:18;;;;;;;24.05;19.90;;;;;;;24.05;95.74;100010.67;2808587;83;21004;-84
2022/07/01 14:51:19;;;;;;;23.40;19.65;;;;;;;23.84;95.25;100041.74;2812926;84;21510;-85
2022/07/01 14:55:20;;;;;;;20.27;16.10;;;;;;;23.61;95.65;100061.61;2753336;83;21015;-85
2022/07/01 14:59:22;;;;;;;16.73;14.87;;;;;;;23.36;96.41;100070.52;2808277;83;21290;-84
2022/07/01 15:03:23;;;;;;;14.38;12.80;;;;;;;23.19;96.12;100043.53;2804676;84;21066;-85
2022/07/01 15:07:24;;;;;;;14.68;12.10;;;;;;;22.94;96.53;100038.30;2793180;83;21031;-85
2022/07/01 15:11:25;;;;;;;15.50;14.00;;;;;;;22.78;97.58;100046.89;2802061;83;21012;-85
2022/07/01 15:15:27;;;;;;;15.45;12.78;;;;;;;22.92;97.78;100051.23;2814196;83;21027;-85
2022/07/01 15:19:28;;;;;;;15.55;12.58;;;;;;;22.97;98.16;100058.20;2785450;83;21059;-85
2022/07/01 15:23:29;;;;;;;11.78;10.58;;;;;;;22.96;97.73;100065.22;2814243;83;21059;-84
2022/07/01 15:27:30;;;;;;;9.45;8.53;;;;;;;22.84;97.20;100062.33;2811626;83;21004;-85
2022/07/01 15:31:32;;;;;;;7.60;6.90;;;;;;;22.63;96.41;100034.44;2812567;83;21661;-87
2022/07/01 15:35:33;;;;;;;8.88;8.08;;;;;;;22.47;96.40;100032.17;2814255;83;21167;-85
2022/07/01 15:39:34;;;;;;;8.40;5.90;;;;;;;22.39;96.23;100038.06;2755011;84;21601;-86
2022/07/01 15:43:36;;;;;;;5.47;4.67;;;;;;;22.26;95.54;100074.67;2810412;83;20984;-85
2022/07/01 15:51:56;;;;;;;4.08;3.67;;;;;;;22.02;94.13;100074.25;2814545;83;21027;-85
2022/07/01 15:55:58;;;;;;;6.97;5.25;;;;;;;21.99;93.39;100073.28;2809923;83;21043;-85
2022/07/01 15:59:59;;;;;;;5.80;4.37;;;;;;;22.09;93.64;100074.22;2711053;83;21538;-88
2022/07/01 16:04:00;;;;;;;7.90;5.65;;;;;;;22.15;94.49;100083.41;2802082;83;20984;-86
2022/07/01 16:08:06;;;;;;;4.62;4.17;;;;;;;22.24;97.34;100102.49;2814277;83;20980;-86
2022/07/01 16:12:08;;;;;;;7.28;4.97;;;;;;;22.25;95.69;100097.39;2787890;83;20999;-85
2022/07/01 16:16:10;;;;;;;3.42;3.12;;;;;;;22.23;93.60;100130.09;2803051;83;21043;-86
2022/07/01 16:20:15;;;;;;;4.15;3.42;;;;;;;22.34;92.26;100136.77;2810705;83;21047;-85
2022/07/01 16:24:16;;;;;;;5.33;3.52;;;;;;;22.38;92.13;100158.33;2806330;83;20995;-86
2022/07/01 16:28:19;;;;;;;4.20;3.67;;;;;;;22.36;91.04;100131.15;2814700;84;21019;-85
2022/07/01 16:32:20;;;;;;;6.50;3.65;;;;;;;22.26;89.73;100139.69;2813932;83;21025;-85
2022/07/01 16:36:32;;;;;;;5.70;3.87;;;;;;;22.22;90.22;100139.26;2816040;83;21034;-84
2022/07/01 16:40:37;;;;;;;3.72;3.42;;;;;;;22.17;89.13;100161.23;2819502;83;21031;-84
2022/07/01 16:44:53;;;;;;;3.58;3.22;;;;;;;22.13;89.07;100189.27;2809433;83;21130;-85
2022/07/01 16:48:56;;;;;;;8.18;4.80;;;;;;;22.11;88.92;100175.91;2810840;83;20991;-85
2022/07/01 16:52:59;;;;;;;3.85;3.55;;;;;;;22.06;89.07;100181.12;2812370;83;20996;-85
2022/07/01 16:57:04;;;;;;;5.28;4.78;;;;;;;22.01;87.67;100181.41;2818700;83;21023;-84
2022/07/01 17:01:05;;;;;;;;;;;;;;;22.07;88.23;100182.78;2805731;83;21055;-84
2022/07/01 17:05:07;;;;;;;5.12;4.15;;;;;;;22.05;87.28;100191.64;2814549;83;20163;-85
2022/07/01 17:09:09;;;;;;;5.10;3.90;;;;;;;22.03;87.85;100185.59;2817944;83;21393;-85
2022/07/01 17:13:13;;;;;;;3.80;3.05;;;;;;;22.04;87.81;100192.67;2814307;84;21161;-85
2022/07/01 17:17:19;;;;;;;5.42;4.92;;;;;;;22.00;86.51;100185.97;2816749;83;21629;-90
2022/07/01 17:21:26;;;;;;;3.83;3.52;;;;;;;21.96;86.92;100202.32;2780520;85;21011;-89
2022/07/01 17:25:50;;;;;;;7.40;4.28;;;;;;;21.90;84.51;100187.71;2745325;84;21657;-85
2022/07/01 17:30:13;;;;;;;6.90;4.17;;;;;;;21.85;83.54;100204.27;2816623;82;21042;-86
2022/07/01 17:34:15;;;;;;;4.40;2.58;;;;;;;21.66;84.18;100209.41;2812383;82;21122;-87
2022/07/01 17:38:21;;;;;;;5.53;2.75;;;;;;;21.42;83.95;100191.25;2795019;83;20985;-87
2022/07/01 17:42:23;;;;;;;2.70;2.12;;;;;;;21.40;84.33;100204.97;2806028;83;21047;-87
2022/07/01 17:46:26;;;;;;;3.42;2.22;;;;;;;21.41;84.40;100228.78;2792479;83;21003;-87
2022/07/01 17:50:30;;;;;;;4.97;2.30;;;;;;;21.35;84.22;100229.59;2819647;83;21023;-87
2022/07/01 17:54:31;;;;;;;4.40;2.42;;;;;;;21.45;84.32;100228.73;2761596;83;20991;-87
2022/07/01 17:58:35;;;;;;;7.10;2.90;;;;;;;21.37;83.72;100239.19;2817923;83;21035;-87
2022/07/01 18:02:39;;;;;;;5.70;2.98;;;;;;;21.20;82.65;100256.22;2805924;83;21054;-85
2022/07/01 18:06:40;;;;;;;3.02;2.70;;;;;;;21.18;83.18;100252.06;2780645;83;21059;-87
2022/07/01 18:10:47;;;;;;;5.17;3.12;;;;;;;20.97;82.83;100272.70;2794728;83;21023;-89
2022/07/01 18:15:09;;;;;;;4.67;4.28;;;;;;;21.02;82.96;100275.64;2796616;82;21007;-88
2022/07/01 18:19:32;;;;;;;7.95;4.60;;;;;;;21.01;82.57;100271.77;2782838;83;22198;-87
2022/07/01 18:23:48;;;;;;;4.40;3.65;;;;;;;20.98;83.12;100291.41;2809116;83;21003;-89
2022/07/01 18:27:56;;;;;;;3.98;3.02;;;;;;;20.91;83.97;100290.53;2803069;84;21094;-90
2022/07/01 18:32:03;;;;;;;4.90;4.42;;;;;;;20.81;83.98;100300.81;2818325;83;21035;-87
2022/07/01 18:36:08;;;;;;;7.70;3.87;;;;;;;20.66;84.17;100313.86;2794091;83;21019;-87
2022/07/01 18:40:13;;;;;;;4.33;3.70;;;;;;;20.59;84.86;100326.45;2793144;83;21037;-88
2022/07/01 18:44:15;;;;;;;3.40;3.10;;;;;;;20.58;84.54;100340.98;2806494;83;21007;-87
2022/07/01 18:48:16;;;;;;;3.70;3.35;;;;;;;20.52;84.35;100364.73;2804908;84;20992;-88
2022/07/01 18:52:18;;;;;;;3.30;3.05;;;;;;;20.49;83.42;100397.00;2797036;84;21006;-87
2022/07/01 18:56:19;;;;;;;3.02;2.55;;;;;;;20.49;83.54;100437.53;2802696;83;20979;-88
2022/07/01 19:00:26;;;;;;;3.92;2.50;;;;;;;20.46;83.68;100455.47;2799098;83;21526;-89
2022/07/01 19:04:28;;;;;;;3.05;2.72;;;;;;;20.45;83.88;100479.98;2809359;83;21114;-90